Time;durP1;ratioP1;P1;durP2;ratioP2;P2;SDS_P1;SDS_P2;PMS_P1;PMS_P2;Temp;Humidity;BMP_temperature;BMP_pressure;BME280_temperature;BME280_humidity;BME280_pressure;Samples;Min_cycle;Max_cycle;Signal;HPM_P1;HPM_P2
2022/01/29 00:01:13;;;;;;;57.47;30.58;;;-3.40;96.30;;;;;;5013425;28;20376;-83
2022/01/29 00:03:39;;;;;;;45.67;26.70;;;-3.40;96.30;;;;;;5015121;28;20019;-83
2022/01/29 00:06:05;;;;;;;48.15;26.75;;;-3.30;96.30;;;;;;5015796;28;20022;-83
2022/01/29 00:08:31;;;;;;;49.92;27.75;;;-3.40;96.20;;;;;;5017027;28;20022;-84
2022/01/29 00:11:07;;;;;;;54.28;28.92;;;-3.40;96.20;;;;;;5016422;28;20033;-84
2022/01/29 00:13:34;;;;;;;46.78;27.60;;;-3.30;96.20;;;;;;5034200;28;20022;-84
2022/01/29 00:16:00;;;;;;;48.33;30.67;;;-3.40;96.20;;;;;;5034956;28;20087;-85
2022/01/29 00:18:26;;;;;;;44.40;27.02;;;-3.40;96.10;;;;;;5036002;28;20108;-84
2022/01/29 00:20:52;;;;;;;61.03;30.88;;;-3.40;96.00;;;;;;5017468;28;20513;-84
2022/01/29 00:23:18;;;;;;;50.60;28.20;;;-3.40;96.00;;;;;;5033331;28;20025;-81
2022/01/29 00:25:44;;;;;;;50.78;26.27;;;-3.40;96.00;;;;;;5032502;28;20029;-81
2022/01/29 00:28:09;;;;;;;51.20;29.25;;;-3.40;96.00;;;;;;5032265;28;20025;-82
2022/01/29 00:30:39;;;;;;;57.72;28.67;;;-3.50;96.20;;;;;;5031901;28;20081;-82
2022/01/29 00:33:05;;;;;;;57.08;31.52;;;-3.50;96.10;;;;;;5032261;28;20100;-82
2022/01/29 00:35:31;;;;;;;48.95;28.20;;;-3.50;96.00;;;;;;5032319;28;20189;-87
2022/01/29 00:37:57;;;;;;;57.80;28.58;;;-3.60;96.00;;;;;;5037045;28;20026;-84
2022/01/29 00:40:23;;;;;;;46.97;28.50;;;-3.60;96.00;;;;;;5015485;28;20037;-84
2022/01/29 00:42:49;;;;;;;46.25;21.88;;;-3.60;96.00;;;;;;5032312;28;20021;-84
2022/01/29 00:45:15;;;;;;;50.70;28.83;;;-3.60;96.10;;;;;;5014326;28;20406;-84
2022/01/29 00:47:41;;;;;;;46.88;27.25;;;-3.60;96.20;;;;;;5013996;28;20022;-83
2022/01/29 00:50:09;;;;;;;50.83;26.13;;;-3.60;96.30;;;;;;5032146;28;20022;-83
2022/01/29 00:52:34;;;;;;;49.78;27.70;;;-3.60;96.40;;;;;;5027868;28;20415;-85
2022/01/29 00:55:00;;;;;;;50.30;26.42;;;-3.70;96.40;;;;;;5027043;28;20059;-84
2022/01/29 00:57:28;;;;;;;56.45;29.10;;;-3.70;96.50;;;;;;5036996;28;20386;-84
2022/01/29 00:59:54;;;;;;;49.60;27.20;;;-3.70;96.60;;;;;;5040369;28;20022;-84
2022/01/29 01:02:20;;;;;;;52.40;30.58;;;-3.70;96.50;;;;;;5037375;28;20467;-84
2022/01/29 01:04:47;;;;;;;62.97;29.40;;;-3.70;96.40;;;;;;5039355;28;20021;-84
2022/01/29 01:07:13;;;;;;;62.75;30.17;;;-3.70;96.40;;;;;;5048128;28;20548;-84
2022/01/29 01:09:39;;;;;;;56.80;29.83;;;-3.70;96.40;;;;;;5033860;28;20030;-83
2022/01/29 01:12:05;;;;;;;48.65;29.02;;;-3.60;96.40;;;;;;5022769;28;20026;-85
2022/01/29 01:14:31;;;;;;;58.90;30.75;;;-3.60;96.30;;;;;;5015249;28;20022;-84
2022/01/29 01:16:57;;;;;;;51.08;30.33;;;-3.70;96.30;;;;;;5016880;28;20048;-83
2022/01/29 01:19:25;;;;;;;54.08;29.88;;;-3.70;96.40;;;;;;5018892;28;20041;-84
2022/01/29 01:21:55;;;;;;;53.33;28.10;;;-3.60;96.40;;;;;;5016408;28;20044;-83
2022/01/29 01:24:22;;;;;;;47.35;27.85;;;-3.60;96.40;;;;;;5015927;28;20103;-84
2022/01/29 01:26:48;;;;;;;51.85;29.00;;;-3.60;96.40;;;;;;5016893;28;20030;-84
2022/01/29 01:29:14;;;;;;;49.90;29.65;;;-3.60;96.40;;;;;;5022752;28;20038;-82
2022/01/29 01:31:43;;;;;;;56.53;30.17;;;-3.60;96.40;;;;;;5025782;28;20026;-84
2022/01/29 01:34:09;;;;;;;63.95;35.88;;;-3.50;96.40;;;;;;5020424;28;20018;-86
2022/01/29 01:36:41;;;;;;;45.45;26.33;;;-3.50;96.60;;;;;;5022231;28;20395;-83
2022/01/29 01:39:10;;;;;;;52.67;27.95;;;-3.50;96.30;;;;;;5017196;28;20029;-85
2022/01/29 01:41:42;;;;;;;50.30;29.30;;;-3.50;96.20;;;;;;5015698;28;20026;-84
2022/01/29 01:44:13;;;;;;;46.85;28.92;;;-3.50;96.10;;;;;;5015380;28;20025;-83
2022/01/29 01:46:39;;;;;;;57.45;28.77;;;-3.50;96.00;;;;;;5015355;28;20026;-85
2022/01/29 01:49:05;;;;;;;48.60;26.67;;;-3.50;96.00;;;;;;5013571;28;20026;-84
2022/01/29 01:51:31;;;;;;;47.38;27.40;;;-3.50;96.00;;;;;;5013818;28;20487;-84
2022/01/29 01:53:58;;;;;;;54.95;29.98;;;-3.50;96.00;;;;;;5010663;28;20026;-83
2022/01/29 01:56:23;;;;;;;56.70;29.65;;;-3.50;96.00;;;;;;5034911;28;20379;-85
2022/01/29 01:58:49;;;;;;;46.15;28.55;;;-3.50;96.10;;;;;;5018095;28;20033;-85
2022/01/29 02:01:15;;;;;;;50.25;30.23;;;-3.50;96.50;;;;;;5033689;28;20033;-85
2022/01/29 02:03:41;;;;;;;46.15;27.90;;;-3.50;96.60;;;;;;5034662;28;20026;-86
2022/01/29 02:06:07;;;;;;;53.92;28.25;;;-3.50;96.40;;;;;;5016950;28;20495;-85
2022/01/29 02:08:32;;;;;;;53.50;28.77;;;-3.50;96.40;;;;;;5040588;28;20018;-82
2022/01/29 02:11:03;;;;;;;46.40;26.33;;;-3.50;96.30;;;;;;5042887;28;20037;-82
2022/01/29 02:13:29;;;;;;;52.00;27.42;;;-3.50;96.20;;;;;;5037987;28;20143;-85
2022/01/29 02:15:55;;;;;;;50.53;28.20;;;-3.50;96.20;;;;;;5036360;28;20025;-83
2022/01/29 02:18:21;;;;;;;53.30;27.50;;;-3.50;96.20;;;;;;5035220;28;20065;-84
2022/01/29 02:20:48;;;;;;;53.95;28.67;;;-3.50;96.10;;;;;;5016642;28;20477;-84
2022/01/29 02:23:14;;;;;;;57.17;31.02;;;-3.50;96.20;;;;;;5039777;28;20018;-83
2022/01/29 02:25:49;;;;;;;52.65;28.92;;;-3.60;96.20;;;;;;5042700;28;20037;-84
2022/01/29 02:28:18;;;;;;;43.17;25.70;;;-3.50;96.20;;;;;;5036038;28;20040;-84
2022/01/29 02:30:47;;;;;;;49.10;26.30;;;-3.50;96.30;;;;;;5034856;28;20112;-83
2022/01/29 02:33:14;;;;;;;48.30;27.83;;;-3.50;96.30;;;;;;5034181;28;20021;-85
2022/01/29 02:35:43;;;;;;;49.25;24.58;;;-3.50;96.40;;;;;;5034297;28;20116;-85
2022/01/29 02:38:11;;;;;;;47.40;25.73;;;-3.50;96.40;;;;;;5034023;28;20053;-82
2022/01/29 02:40:52;;;;;;;59.28;28.92;;;-3.50;96.40;;;;;;5015801;28;20083;-84
2022/01/29 02:43:28;;;;;;;47.67;27.92;;;-3.40;96.40;;;;;;5032340;28;20232;-84
2022/01/29 02:45:54;;;;;;;56.08;30.83;;;-3.50;96.30;;;;;;5033926;28;20104;-84
2022/01/29 02:48:22;;;;;;;46.58;27.40;;;-3.40;96.40;;;;;;5033549;28;20505;-83
2022/01/29 02:50:49;;;;;;;52.47;28.27;;;-3.40;96.40;;;;;;5033446;28;20386;-84
2022/01/29 02:53:15;;;;;;;53.55;28.63;;;-3.40;96.30;;;;;;5015767;28;20018;-84
2022/01/29 02:55:41;;;;;;;49.17;29.08;;;-3.40;96.20;;;;;;5014491;28;20402;-85
2022/01/29 02:58:08;;;;;;;52.20;29.50;;;-3.40;96.10;;;;;;5014348;28;20022;-85
2022/01/29 03:00:34;;;;;;;55.47;27.33;;;-3.40;96.00;;;;;;5014966;28;20030;-83
2022/01/29 03:03:00;;;;;;;49.95;28.50;;;-3.40;96.00;;;;;;5016869;28;20026;-85
2022/01/29 03:05:26;;;;;;;48.28;28.85;;;-3.30;96.00;;;;;;5021431;28;20026;-83
2022/01/29 03:07:52;;;;;;;53.20;29.77;;;-3.30;95.90;;;;;;5023263;28;20033;-85
2022/01/29 03:10:18;;;;;;;54.63;28.55;;;-3.30;95.90;;;;;;5041536;28;20026;-86
2022/01/29 03:12:44;;;;;;;50.13;28.60;;;-3.30;96.00;;;;;;5035845;28;20029;-83
2022/01/29 03:15:11;;;;;;;54.78;29.80;;;-3.30;96.00;;;;;;5039949;28;20022;-86
2022/01/29 03:17:37;;;;;;;47.35;28.88;;;-3.30;95.90;;;;;;5033844;28;20029;-85
2022/01/29 03:20:04;;;;;;;58.88;30.00;;;-3.30;95.90;;;;;;5034526;28;20030;-87
2022/01/29 03:22:30;;;;;;;52.92;30.48;;;-3.20;96.10;;;;;;5039538;28;20029;-83
2022/01/29 03:24:56;;;;;;;54.22;30.48;;;-3.30;95.80;;;;;;5035634;28;20101;-85
2022/01/29 03:27:22;;;;;;;56.35;28.90;;;-3.20;95.80;;;;;;5036239;28;20060;-83
2022/01/29 03:29:48;;;;;;;47.22;26.10;;;-3.20;95.70;;;;;;5039567;28;20042;-83
2022/01/29 03:32:14;;;;;;;55.85;28.60;;;-3.20;95.70;;;;;;5036131;28;20108;-85
2022/01/29 03:34:40;;;;;;;54.67;28.02;;;-3.20;95.70;;;;;;5033846;28;20053;-84
2022/01/29 03:37:06;;;;;;;58.45;29.17;;;-3.10;95.70;;;;;;5027747;28;20497;-85
2022/01/29 03:39:34;;;;;;;53.53;31.52;;;-3.20;95.80;;;;;;5033574;28;20029;-84
2022/01/29 03:42:04;;;;;;;53.47;28.67;;;-3.10;95.70;;;;;;5033204;28;20371;-87
2022/01/29 03:44:31;;;;;;;54.15;29.33;;;-3.20;95.60;;;;;;5033317;28;20056;-86
2022/01/29 03:46:56;;;;;;;52.72;29.17;;;-3.20;95.60;;;;;;5016219;28;20083;-85
2022/01/29 03:49:22;;;;;;;53.28;29.85;;;-3.30;95.50;;;;;;5034334;28;20395;-85
2022/01/29 03:51:48;;;;;;;52.80;29.92;;;-3.30;95.50;;;;;;5019464;28;20431;-84
2022/01/29 03:54:14;;;;;;;54.78;31.58;;;-3.20;95.70;;;;;;5033059;28;20051;-83
2022/01/29 03:56:40;;;;;;;56.75;31.17;;;-3.30;95.70;;;;;;5035645;28;20382;-86
2022/01/29 03:59:05;;;;;;;59.92;30.83;;;-3.30;95.70;;;;;;5034314;28;20024;-85
2022/01/29 04:01:31;;;;;;;55.00;31.48;;;-3.30;95.70;;;;;;5014627;28;20398;-87
2022/01/29 04:03:58;;;;;;;51.92;30.35;;;-3.20;95.60;;;;;;5015281;28;20037;-84
2022/01/29 04:06:25;;;;;;;64.40;33.15;;;-3.20;95.50;;;;;;5032959;28;20030;-85
2022/01/29 04:08:51;;;;;;;56.50;31.15;;;-3.30;95.20;;;;;;5032479;28;20501;-85
2022/01/29 04:11:17;;;;;;;57.63;30.95;;;-3.40;95.30;;;;;;5015768;28;20033;-85
2022/01/29 04:13:46;;;;;;;48.75;29.40;;;-3.50;95.50;;;;;;5033286;28;20091;-86
2022/01/29 04:16:14;;;;;;;59.33;31.90;;;-3.50;95.60;;;;;;5038071;28;20048;-86
2022/01/29 04:18:39;;;;;;;;;;;-3.50;95.70;;;;;;5038551;28;20140;-85
2022/01/29 04:21:06;;;;;;;52.67;30.13;;;-3.50;95.70;;;;;;5035959;28;20454;-86
2022/01/29 04:23:33;;;;;;;58.33;32.28;;;-3.60;95.70;;;;;;5035864;28;20421;-85
2022/01/29 04:26:00;;;;;;;55.92;35.55;;;-3.60;95.70;;;;;;5017404;28;20026;-85
2022/01/29 04:28:30;;;;;;;;;;;-3.60;95.80;;;;;;5036403;28;20025;-85
2022/01/29 04:31:00;;;;;;;54.08;30.42;;;-3.60;95.80;;;;;;5036782;28;19924;-84
2022/01/29 04:33:29;;;;;;;60.78;31.83;;;-3.60;95.70;;;;;;5035939;28;20033;-85
2022/01/29 04:36:01;;;;;;;56.53;31.63;;;-3.70;95.70;;;;;;5042165;28;20028;-86
2022/01/29 04:38:29;;;;;;;53.33;28.35;;;-3.70;95.90;;;;;;5047737;28;20108;-84
2022/01/29 04:40:55;;;;;;;;;;;-3.70;96.00;;;;;;5042228;28;20379;-85
2022/01/29 04:43:21;;;;;;;61.58;32.65;;;-3.70;96.10;;;;;;5040296;28;20037;-84
2022/01/29 04:45:47;;;;;;;54.63;33.80;;;-3.70;96.00;;;;;;5048333;28;20040;-84
2022/01/29 04:48:13;;;;;;;54.92;33.25;;;-3.70;96.10;;;;;;5050528;28;20102;-84
2022/01/29 04:50:39;;;;;;;48.75;26.17;;;-3.70;96.00;;;;;;5028040;28;20026;-84
2022/01/29 04:53:05;;;;;;;53.60;30.30;;;-3.70;95.70;;;;;;5011470;28;20095;-86
2022/01/29 04:55:32;;;;;;;56.47;30.17;;;-3.70;95.80;;;;;;5036978;28;20490;-83
2022/01/29 04:57:58;;;;;;;58.38;29.45;;;-3.70;95.70;;;;;;5036763;28;20029;-84
2022/01/29 05:00:24;;;;;;;56.42;33.67;;;-3.80;95.80;;;;;;5036285;28;20461;-84
2022/01/29 05:02:55;;;;;;;54.53;31.70;;;-3.80;96.00;;;;;;5018553;28;20119;-83
2022/01/29 05:05:22;;;;;;;56.58;33.53;;;-3.80;96.00;;;;;;5035802;28;20029;-83
2022/01/29 05:07:48;;;;;;;64.38;35.85;;;-3.80;96.10;;;;;;5035901;28;20022;-85
2022/01/29 05:10:14;;;;;;;58.58;31.00;;;-3.80;96.20;;;;;;5017964;28;20021;-86
2022/01/29 05:28:40;;;;;;;55.58;33.60;;;-3.60;95.80;;;;;;5035495;28;20037;-83
2022/01/29 05:31:06;;;;;;;61.33;32.67;;;-3.60;95.90;;;;;;5035079;28;20418;-84
2022/01/29 05:33:35;;;;;;;58.92;33.00;;;-3.60;96.00;;;;;;5035299;28;20033;-85
2022/01/29 05:36:00;;;;;;;57.72;30.73;;;-3.50;96.00;;;;;;5017745;28;20021;-85
2022/01/29 05:38:27;;;;;;;54.38;30.40;;;-3.60;95.70;;;;;;5003121;28;20026;-84
2022/01/29 05:40:55;;;;;;;56.15;30.70;;;-3.60;95.70;;;;;;5014900;28;20372;-84
2022/01/29 05:43:20;;;;;;;;;;;-3.70;95.80;;;;;;5017388;28;20033;-84
2022/01/29 05:45:46;;;;;;;54.88;30.60;;;-3.70;95.90;;;;;;5021794;28;19980;-87
2022/01/29 05:48:12;;;;;;;57.05;31.77;;;-3.70;96.00;;;;;;5020255;28;20033;-85
2022/01/29 05:50:38;;;;;;;62.47;36.47;;;-3.60;96.10;;;;;;5024881;28;20018;-84
2022/01/29 05:53:04;;;;;;;56.08;29.92;;;-3.50;96.50;;;;;;5009516;28;20032;-86
2022/01/29 05:55:29;;;;;;;63.65;34.58;;;-3.50;96.00;;;;;;5035998;28;20100;-84
2022/01/29 05:57:55;;;;;;;62.00;35.28;;;-3.50;96.00;;;;;;5036912;28;20021;-85
2022/01/29 06:00:21;;;;;;;57.80;32.75;;;-3.50;96.00;;;;;;5037518;28;20434;-87
2022/01/29 06:02:56;;;;;;;63.90;32.55;;;-3.40;96.10;;;;;;5036389;28;20025;-84
2022/01/29 06:05:22;;;;;;;63.90;33.63;;;-3.40;95.90;;;;;;5019273;28;20032;-84
2022/01/29 06:07:48;;;;;;;53.30;31.17;;;-3.40;95.90;;;;;;5035813;28;20100;-85
2022/01/29 06:10:14;;;;;;;59.00;32.78;;;-3.40;96.00;;;;;;5018057;28;20026;-85
2022/01/29 06:12:40;;;;;;;62.15;31.10;;;-3.30;96.20;;;;;;5016271;28;20022;-86
2022/01/29 06:15:06;;;;;;;57.78;34.45;;;-3.30;96.30;;;;;;5016944;28;20022;-84
2022/01/29 06:17:33;;;;;;;63.72;35.17;;;-3.30;96.20;;;;;;5017721;28;20495;-85
2022/01/29 06:19:59;;;;;;;70.80;34.75;;;-3.20;96.10;;;;;;5016514;28;20033;-85
2022/01/29 06:22:25;;;;;;;59.28;32.78;;;-3.20;96.10;;;;;;5029286;28;20022;-86
2022/01/29 06:24:51;;;;;;;60.65;34.47;;;-3.20;96.00;;;;;;5025918;28;20048;-84
2022/01/29 06:27:17;;;;;;;70.13;38.67;;;-3.10;96.10;;;;;;5028373;28;20102;-84
2022/01/29 06:29:43;;;;;;;56.15;32.35;;;-3.10;96.10;;;;;;5021502;28;20054;-84
2022/01/29 06:32:09;;;;;;;63.42;33.35;;;-3.10;96.10;;;;;;5016446;28;20064;-85
2022/01/29 06:34:34;;;;;;;67.88;33.72;;;-3.00;96.10;;;;;;5015800;28;20026;-85
2022/01/29 06:37:00;;;;;;;65.13;34.67;;;-3.00;96.30;;;;;;5016069;28;20053;-87
2022/01/29 06:39:26;;;;;;;60.33;32.33;;;-3.00;96.20;;;;;;5014800;28;20176;-86
2022/01/29 06:41:52;;;;;;;59.85;33.45;;;-3.00;96.30;;;;;;5015748;28;20045;-85
2022/01/29 06:44:17;;;;;;;62.88;36.03;;;-3.00;96.20;;;;;;5015512;28;20097;-84
2022/01/29 06:46:43;;;;;;;70.65;35.38;;;-3.00;96.10;;;;;;5012957;28;20026;-85
2022/01/29 06:49:09;;;;;;;66.32;36.17;;;-3.00;96.30;;;;;;5013682;28;20030;-85
2022/01/29 06:51:35;;;;;;;64.10;35.03;;;-3.00;96.00;;;;;;5020706;28;20115;-85
2022/01/29 06:54:00;;;;;;;67.88;37.35;;;-2.90;95.90;;;;;;5014648;28;20105;-85
2022/01/29 06:56:26;;;;;;;63.38;33.17;;;-2.90;95.80;;;;;;4995950;28;20030;-84
2022/01/29 06:58:52;;;;;;;56.55;31.42;;;-2.90;95.70;;;;;;4996399;28;20026;-84
2022/01/29 07:01:18;;;;;;;59.92;32.28;;;-2.90;95.70;;;;;;5012263;28;20037;-85
2022/01/29 07:03:44;;;;;;;62.60;34.75;;;-2.80;95.70;;;;;;5013585;28;20109;-85
2022/01/29 07:06:09;;;;;;;64.30;36.30;;;-2.80;95.70;;;;;;5013560;28;20017;-86
2022/01/29 07:08:38;;;;;;;64.22;35.25;;;-2.70;95.70;;;;;;5013369;28;20022;-85
2022/01/29 07:11:04;;;;;;;64.38;35.30;;;-2.70;95.60;;;;;;5014040;28;20113;-84
2022/01/29 07:13:31;;;;;;;64.50;35.60;;;-2.70;95.50;;;;;;4995806;28;20531;-85
2022/01/29 07:15:56;;;;;;;63.13;33.80;;;-2.70;95.40;;;;;;5013729;28;20022;-84
2022/01/29 07:18:22;;;;;;;64.93;37.38;;;-2.70;95.30;;;;;;5015071;28;20040;-87
2022/01/29 07:20:48;;;;;;;67.20;36.05;;;-2.70;95.20;;;;;;5016728;28;20028;-85
2022/01/29 07:23:14;;;;;;;68.60;40.33;;;-2.70;95.20;;;;;;5042217;28;20364;-83
2022/01/29 07:25:40;;;;;;;72.07;37.50;;;-2.70;95.10;;;;;;5037929;28;20036;-86
2022/01/29 07:28:06;;;;;;;59.75;31.77;;;-2.60;95.00;;;;;;5033200;28;20467;-84
2022/01/29 07:30:31;;;;;;;69.85;37.72;;;-2.60;95.00;;;;;;5033238;28;20060;-83
2022/01/29 07:32:57;;;;;;;67.78;36.08;;;-2.60;94.90;;;;;;5035918;28;20551;-84
2022/01/29 07:35:23;;;;;;;61.22;32.70;;;-2.50;94.80;;;;;;5014960;28;20057;-86
2022/01/29 07:37:49;;;;;;;62.55;34.20;;;-2.50;94.60;;;;;;5031704;28;20069;-85
2022/01/29 07:40:14;;;;;;;67.28;37.95;;;-2.40;95.00;;;;;;5033547;28;20032;-85
2022/01/29 07:42:40;;;;;;;71.55;35.50;;;-2.50;95.30;;;;;;5032763;28;20029;-84
2022/01/29 07:45:06;;;;;;;72.10;36.28;;;-2.50;95.20;;;;;;5032716;28;20029;-85
2022/01/29 07:47:33;;;;;;;66.43;37.15;;;-2.50;95.20;;;;;;5013098;28;20026;-83
2022/01/29 07:49:59;;;;;;;73.60;37.70;;;-2.50;95.10;;;;;;5013330;28;20086;-85
2022/01/29 07:52:25;;;;;;;67.47;37.42;;;-2.40;95.10;;;;;;5013120;28;20398;-85
2022/01/29 07:54:51;;;;;;;62.70;34.40;;;-2.40;95.20;;;;;;5013549;28;20036;-84
2022/01/29 07:57:16;;;;;;;66.55;36.03;;;-2.40;95.20;;;;;;5012453;28;20026;-84
2022/01/29 07:59:42;;;;;;;69.47;36.60;;;-2.40;95.10;;;;;;5012992;28;20026;-85
2022/01/29 08:02:08;;;;;;;68.90;35.85;;;-2.30;95.00;;;;;;4995834;28;20057;-83
2022/01/29 08:04:34;;;;;;;62.25;33.55;;;-2.30;94.90;;;;;;4998817;28;20025;-85
2022/01/29 08:07:00;;;;;;;62.83;35.38;;;-2.30;95.10;;;;;;5017200;28;20026;-86
2022/01/29 08:09:26;;;;;;;75.53;38.40;;;-2.20;95.20;;;;;;5018457;28;20090;-84
2022/01/29 08:11:51;;;;;;;65.40;39.17;;;-2.20;95.00;;;;;;5021179;28;20072;-84
2022/01/29 08:14:17;;;;;;;69.78;37.15;;;-2.20;94.90;;;;;;5003973;28;20033;-84
2022/01/29 08:16:43;;;;;;;71.13;40.58;;;-2.10;94.80;;;;;;5016917;28;20022;-84
2022/01/29 08:19:09;;;;;;;67.28;36.95;;;-2.10;94.60;;;;;;5017906;28;20132;-85
2022/01/29 08:21:36;;;;;;;65.25;33.83;;;-2.00;94.30;;;;;;4999658;28;20038;-84
2022/01/29 08:24:02;;;;;;;83.47;38.55;;;-2.00;94.40;;;;;;5017306;28;20211;-83
2022/01/29 08:26:28;;;;;;;70.47;34.30;;;-1.90;94.40;;;;;;5018348;28;20041;-83
2022/01/29 08:28:54;;;;;;;69.60;38.95;;;-1.90;94.30;;;;;;5019823;28;20022;-82
2022/01/29 08:31:19;;;;;;;68.22;35.95;;;-1.80;94.40;;;;;;5024815;28;20118;-83
2022/01/29 08:33:45;;;;;;;72.03;38.40;;;-1.80;94.20;;;;;;5021201;28;20022;-83
2022/01/29 08:36:11;;;;;;;72.45;38.22;;;-1.80;94.40;;;;;;5020683;28;20064;-86
2022/01/29 08:38:37;;;;;;;61.90;35.20;;;-1.70;94.30;;;;;;5018747;28;20099;-84
2022/01/29 08:41:03;;;;;;;66.97;34.70;;;-1.70;94.30;;;;;;5025070;28;20049;-84
2022/01/29 08:43:29;;;;;;;73.32;39.75;;;-1.70;94.50;;;;;;5017330;28;20026;-84
2022/01/29 08:45:55;;;;;;;74.45;37.47;;;-1.70;94.40;;;;;;5028630;28;20052;-84
2022/01/29 08:48:21;;;;;;;68.65;37.97;;;-1.70;94.40;;;;;;5029064;28;20022;-84
2022/01/29 08:50:47;;;;;;;68.80;39.03;;;-1.70;94.50;;;;;;5015929;28;20053;-83
2022/01/29 08:53:15;;;;;;;71.05;36.60;;;-1.70;94.50;;;;;;5014736;28;20026;-83
2022/01/29 08:55:41;;;;;;;;;;;-1.70;94.30;;;;;;5016346;28;20491;-84
2022/01/29 08:58:08;;;;;;;68.75;40.10;;;-1.60;94.40;;;;;;5015441;28;19921;-84
2022/01/29 09:00:41;;;;;;;74.57;38.80;;;-1.70;94.50;;;;;;5008841;28;20053;-81
2022/01/29 09:03:07;;;;;;;69.47;37.00;;;-1.70;94.50;;;;;;5028144;28;20021;-82
2022/01/29 09:05:34;;;;;;;68.90;38.53;;;-1.60;94.40;;;;;;5025994;28;20152;-83
2022/01/29 09:08:01;;;;;;;71.93;37.15;;;-1.60;94.40;;;;;;5015327;28;20025;-82
2022/01/29 09:10:27;;;;;;;69.22;35.10;;;-1.50;94.50;;;;;;5017312;28;20033;-86
2022/01/29 09:12:54;;;;;;;72.57;39.53;;;-1.50;94.30;;;;;;5026068;28;20026;-82
2022/01/29 09:15:20;;;;;;;68.35;40.25;;;-1.40;94.00;;;;;;5016946;28;20014;-82
2022/01/29 09:17:46;;;;;;;72.50;37.40;;;-1.40;93.80;;;;;;5037665;28;20029;-87
2022/01/29 09:20:12;;;;;;;74.03;40.72;;;-1.40;93.50;;;;;;5034958;28;20030;-82
2022/01/29 09:22:39;;;;;;;77.07;41.08;;;-1.30;93.50;;;;;;5020706;28;20033;-81
2022/01/29 09:25:06;;;;;;;70.25;40.95;;;-1.30;93.30;;;;;;5031996;28;20029;-82
2022/01/29 09:27:31;;;;;;;68.45;39.10;;;-1.20;93.00;;;;;;5021398;28;20053;-80
2022/01/29 09:29:57;;;;;;;70.97;38.47;;;-1.10;93.00;;;;;;5038989;28;20502;-85
2022/01/29 09:32:24;;;;;;;73.07;36.50;;;-1.10;92.90;;;;;;5022385;28;20094;-85
2022/01/29 09:34:50;;;;;;;80.78;44.67;;;-1.10;93.00;;;;;;5016879;28;20041;-85
2022/01/29 09:37:16;;;;;;;72.55;41.67;;;-1.00;93.10;;;;;;5019408;28;20498;-84
2022/01/29 09:39:44;;;;;;;74.18;39.90;;;-1.00;92.70;;;;;;5016685;28;20444;-84
2022/01/29 09:42:10;;;;;;;71.88;39.15;;;-1.00;92.40;;;;;;5026930;28;20197;-86
2022/01/29 09:44:36;;;;;;;65.47;39.33;;;-0.90;92.40;;;;;;5023070;28;20455;-83
2022/01/29 09:47:06;;;;;;;71.40;42.70;;;-0.90;92.60;;;;;;5015025;28;20030;-83
2022/01/29 09:49:33;;;;;;;77.70;41.92;;;-0.90;92.60;;;;;;5015461;28;20025;-82
2022/01/29 09:51:59;;;;;;;72.55;42.95;;;-0.90;92.50;;;;;;5028865;28;20363;-84
2022/01/29 09:54:25;;;;;;;74.78;41.03;;;-0.80;92.50;;;;;;5021065;28;20079;-84
2022/01/29 09:56:51;;;;;;;79.10;40.15;;;-0.80;92.50;;;;;;5028491;28;20061;-83
2022/01/29 09:59:17;;;;;;;84.15;42.72;;;-0.70;92.50;;;;;;5021501;28;20022;-84
2022/01/29 10:01:43;;;;;;;69.53;40.88;;;-0.70;92.30;;;;;;5026242;28;20169;-86
2022/01/29 10:04:08;;;;;;;86.15;43.50;;;-0.60;92.20;;;;;;5016761;28;20075;-84
2022/01/29 10:06:42;;;;;;;87.47;45.88;;;-0.60;91.80;;;;;;5027697;28;20028;-83
2022/01/29 10:09:11;;;;;;;82.15;41.10;;;-0.60;91.70;;;;;;5032304;28;20037;-84
2022/01/29 10:11:37;;;;;;;78.38;40.65;;;-0.70;91.70;;;;;;5025458;28;20132;-85
2022/01/29 10:14:05;;;;;;;80.68;44.38;;;-0.70;91.70;;;;;;5018648;28;20022;-86
2022/01/29 10:16:32;;;;;;;79.65;44.05;;;-0.70;91.80;;;;;;5015501;28;20521;-83
2022/01/29 10:19:05;;;;;;;;;;;-0.70;91.80;;;;;;5026397;28;20044;-80
2022/01/29 10:21:34;;;;;;;77.78;41.42;;;-0.80;92.00;;;;;;5020078;28;19917;-84
2022/01/29 10:24:10;;;;;;;72.13;41.63;;;-0.80;91.90;;;;;;5020759;28;20053;-83
2022/01/29 10:26:38;;;;;;;76.88;39.47;;;-0.70;92.00;;;;;;5032409;28;20379;-82
2022/01/29 10:29:07;;;;;;;84.50;42.50;;;-0.70;91.90;;;;;;5005951;28;20029;-85
2022/01/29 10:31:40;;;;;;;86.68;43.40;;;-0.60;91.80;;;;;;5015782;28;20033;-84
2022/01/29 10:34:20;;;;;;;91.57;44.30;;;-0.60;91.60;;;;;;5019612;28;20029;-81
2022/01/29 10:37:07;;;;;;;82.68;43.78;;;-0.60;91.80;;;;;;4996889;28;20498;-80
2022/01/29 10:39:33;;;;;;;79.38;42.58;;;-0.50;92.10;;;;;;5020681;28;20029;-81
2022/01/29 10:42:13;;;;;;;85.18;43.20;;;-0.50;92.00;;;;;;5025390;28;20037;-83
2022/01/29 10:44:48;;;;;;;83.85;46.60;;;-0.50;91.70;;;;;;5017748;28;20037;-81
2022/01/29 10:47:14;;;;;;;74.68;42.65;;;-0.50;91.60;;;;;;5014616;28;20080;-81
2022/01/29 10:49:53;;;;;;;78.90;41.13;;;-0.50;91.40;;;;;;5013262;28;20037;-81
2022/01/29 10:52:35;;;;;;;85.15;44.67;;;-0.50;91.40;;;;;;5013048;28;20026;-82
2022/01/29 10:55:05;;;;;;;80.18;42.47;;;-0.50;91.60;;;;;;5013612;28;20092;-80
2022/01/29 10:57:42;;;;;;;81.53;43.60;;;-0.50;91.40;;;;;;5013243;28;20053;-80
2022/01/29 11:00:24;;;;;;;81.18;42.33;;;-0.40;91.60;;;;;;5013134;28;20069;-81
2022/01/29 11:02:51;;;;;;;79.03;42.03;;;-0.50;91.60;;;;;;5012916;28;20107;-81
2022/01/29 11:05:18;;;;;;;86.38;42.50;;;-0.50;91.60;;;;;;5012944;28;20544;-81
2022/01/29 11:07:47;;;;;;;84.65;46.47;;;-0.40;91.60;;;;;;4995322;28;20080;-79
2022/01/29 11:10:13;;;;;;;71.63;41.83;;;-0.40;91.50;;;;;;5012804;28;20117;-80
2022/01/29 11:12:44;;;;;;;77.88;43.83;;;-0.40;91.30;;;;;;5012690;28;20034;-81
2022/01/29 11:15:10;;;;;;;68.53;40.65;;;-0.40;91.30;;;;;;5012903;28;20022;-79
2022/01/29 11:17:36;;;;;;;77.35;39.92;;;-0.50;91.40;;;;;;5012449;28;20028;-79
2022/01/29 11:20:03;;;;;;;86.18;43.35;;;-0.50;91.50;;;;;;5012353;28;20026;-83
2022/01/29 11:22:35;;;;;;;84.28;49.58;;;-0.50;91.50;;;;;;5012629;28;20026;-78
2022/01/29 11:25:08;;;;;;;89.03;44.35;;;-0.50;91.90;;;;;;5011826;28;20087;-75
2022/01/29 11:27:41;;;;;;;85.30;46.72;;;-0.50;92.00;;;;;;5020212;28;20060;-80
2022/01/29 11:30:09;;;;;;;83.43;45.72;;;-0.50;92.60;;;;;;5014089;28;20045;-83
2022/01/29 11:32:42;;;;;;;83.10;42.20;;;-0.50;92.80;;;;;;5027415;28;20026;-80
2022/01/29 11:35:39;;;;;;;84.72;43.33;;;-0.50;93.80;;;;;;5014300;28;20029;-81
2022/01/29 11:38:06;;;;;;;84.28;44.03;;;-0.50;94.00;;;;;;4988267;28;20038;-79
2022/01/29 11:40:39;;;;;;;83.05;43.45;;;-0.50;94.20;;;;;;5018216;28;20053;-81
2022/01/29 11:43:14;;;;;;;84.65;46.08;;;-0.60;93.90;;;;;;5026940;28;20034;-79
2022/01/29 11:45:49;;;;;;;85.72;45.38;;;-0.50;93.80;;;;;;5025440;28;20113;-80
2022/01/29 11:50:56;;;;;;;82.95;44.75;;;-0.60;93.60;;;;;;5012593;28;20030;-81
2022/01/29 11:53:23;;;;;;;87.68;49.88;;;-0.50;93.80;;;;;;5011926;28;20060;-81
2022/01/29 11:55:56;;;;;;;90.60;45.72;;;-0.60;93.60;;;;;;5020332;28;20033;-82
2022/01/29 11:58:28;;;;;;;77.43;43.40;;;-0.60;93.70;;;;;;5012056;28;20092;-78
2022/01/29 12:00:58;;;;;;;96.75;50.25;;;-0.60;93.80;;;;;;5012581;28;20368;-80
2022/01/29 12:03:42;;;;;;;92.13;52.97;;;-0.60;93.40;;;;;;5012147;28;20022;-82
2022/01/29 12:08:40;;;;;;;90.03;46.75;;;-0.60;93.10;;;;;;5032170;28;20025;-80
2022/01/29 12:11:10;;;;;;;90.90;49.45;;;-0.60;93.00;;;;;;5019061;28;20017;-81
2022/01/29 12:13:36;;;;;;;93.93;49.40;;;-0.60;93.00;;;;;;5013784;28;20018;-83
2022/01/29 12:16:02;;;;;;;91.28;50.33;;;-0.60;92.60;;;;;;5010823;28;20045;-82
2022/01/29 12:18:32;;;;;;;87.13;44.97;;;-0.60;92.50;;;;;;5012262;28;20080;-79
2022/01/29 12:20:58;;;;;;;86.55;51.25;;;-0.60;93.00;;;;;;5005854;28;20044;-83
2022/01/29 12:23:24;;;;;;;83.55;46.17;;;-0.60;93.10;;;;;;5012625;28;20022;-83
2022/01/29 12:25:56;;;;;;;85.95;48.42;;;-0.60;93.20;;;;;;5002840;28;20032;-81
2022/01/29 12:28:22;;;;;;;90.30;47.45;;;-0.60;93.20;;;;;;5035084;28;20113;-85
2022/01/29 12:30:49;;;;;;;90.38;48.55;;;-0.60;93.60;;;;;;5032259;28;20050;-82
2022/01/29 12:33:17;;;;;;;92.93;48.22;;;-0.60;93.80;;;;;;5032796;28;20021;-80
2022/01/29 12:36:01;;;;;;;88.63;44.97;;;-0.60;93.60;;;;;;5014210;28;20516;-84
2022/01/29 12:38:41;;;;;;;86.53;44.17;;;-0.60;93.70;;;;;;5032478;28;20120;-85
2022/01/29 12:41:11;;;;;;;91.32;47.38;;;-0.60;93.80;;;;;;5032067;28;20069;-82
2022/01/29 12:43:52;;;;;;;91.68;50.85;;;-0.60;93.70;;;;;;5032115;28;20111;-84
2022/01/29 12:46:23;;;;;;;91.47;49.05;;;-0.60;93.90;;;;;;5032870;28;20025;-82
2022/01/29 12:49:02;;;;;;;110.50;54.67;;;-0.60;93.80;;;;;;5044401;28;20025;-82
2022/01/29 12:51:28;;;;;;;100.10;50.70;;;-0.60;93.50;;;;;;5046857;28;20028;-81